Henniker, New Hampshire
Current Conditions -  °F | °C
As of 3:51 PM on Friday 19 Dec 2014 (Local Time) from KCON Reporting Station
Clear Clear  
Wind Chill: 23°   Ceiling: Unl
Heat Index: 30°   Visibility: 10mi
Dew Point: 19°   Wind: 7mph
Humidity: 64%   Direction: 300°WNW
Pressure: 29.99"   Gusts: NA
Location:  43.19°N, 71.82°W
Report Text: KCON 192051Z AUTO 30006KT 10SM CLR M01/M07 A2999 RMK AO2 SLP162 T10111072 53016
Loading
Personal Weather Stations






























Interactive Weather Map New forecast layout! Learn more

10-Day Weather Forecast

Advertisements
Track Severe Weather on mobile